Decoded Metar for KNUW (WHIDBEY ISLAND in WA, USA) (IATA:NUW) | Meteo·Mobile Aviation Weather
aviador You're here:

KNUW Decoded Metar

WHIDBEY ISLAND in WA, USA
Report Time2019-01-20 09:56:00
UTC Time2019-01-20 10:39:56
Flight Rules vfr VFR
WindCalm
Visibility9999 m
Phenomena:N/A
Clouds:Few 100 Hf
Broken 200 Hf
Expected CloudBase > 1,200 ft AGL from Temp-Dew spread
Ceiling20,000 ft
Temp06°C (ISA -9)
Dew Point03°C (81% RH)
AAT4.5°C
QNH1020 hPa
Density Alt-1,161 ft
Elevation46 ft
Report Wrong Elevation
Raw Report
KNUW 200956Z 00000KT 10SM FEW100 BKN200 06/03 A3013 RMK AO2 SLP204
T00610028 $=

Extra information for KNUW:More info

Metar Taf Metar & Taf Last 4 Metars F.Rules Stats Wind Profile Meteogram Temp Stats Airport Information Weather charts Add Link Nearby VenuesMetar ALERT Operation Metar Decoded Social comments

AIRNAV info for KNUW